St Neots, United Kingdom
Current Conditions -  °F | °C
As of 11:50 AM on Thursday 27 Nov 2014 (Local Time) from EGTC Reporting Station
Scattered Clouds Scattered Clouds  
Wind Chill: 45°   Ceiling: Unl
Heat Index: 48°   Visibility: 5mi
Dew Point: 48°   Wind: 7mph
Humidity: 100%   Direction: 200°SSW
Pressure: 29.59"   Gusts: NA
Location:  52.22°N, 0.27°W
Report Text: EGTC 271150Z 20006KT 8000 FEW006 SCT017 09/09 Q1002
Loading
Personal Weather Stations






























Interactive Weather Map New forecast layout! Learn more

10-Day Weather Forecast

Advertisements
Track Severe Weather on mobile